Time;durP1;ratioP1;P1;durP2;ratioP2;P2;SDS_P1;SDS_P2;PMS_P1;PMS_P2;Temp;Humidity;BMP_temperature;BMP_pressure;BME280_temperature;BME280_humidity;BME280_pressure;Samples;Min_cycle;Max_cycle;Signal;HPM_P1;HPM_P2
2022/08/16 00:01:34;;;;;;;;;;;;;;;20.46;50.30;99793.19;5038024;28;19959;-81
2022/08/16 00:04:06;;;;;;;;;;;;;;;20.44;50.25;99787.22;5039626;28;20426;-81
2022/08/16 00:06:36;;;;;;;;;;;;;;;20.45;50.22;99788.81;5054345;28;19933;-82
2022/08/16 00:09:05;;;;;;;;;;;;;;;20.42;50.26;99789.41;5040246;28;19928;-81
2022/08/16 00:11:32;;;;;;;;;;;;;;;20.41;50.14;99798.72;5040554;28;19929;-81
2022/08/16 00:14:00;;;;;;;;;;;;;;;20.34;50.23;99796.34;5038658;28;20024;-81
2022/08/16 00:16:34;;;;;;;;;;;;;;;20.35;50.16;99793.28;5039070;28;20014;-82
2022/08/16 00:19:23;;;;;;;;;;;;;;;20.37;50.02;99794.94;5037511;28;19935;-82
2022/08/16 00:22:03;;;;;;;;;;;;;;;20.42;49.84;99789.41;5039424;28;19929;-82
2022/08/16 00:24:39;;;;;;;;;;;;;;;20.42;49.81;99792.16;5048983;28;20441;-82
2022/08/16 00:27:16;;;;;;;;;;;;;;;20.42;49.80;99792.97;5053455;28;19929;-82
2022/08/16 00:29:49;;;;;;;;;;;;;;;20.41;49.68;99785.88;5055122;28;19975;-81
2022/08/16 00:32:38;;;;;;;;;;;;;;;20.42;49.79;99792.97;5070481;28;19940;-80
2022/08/16 00:35:05;;;;;;;;;;;;;;;20.40;49.67;99794.38;5070243;28;19936;-81
2022/08/16 00:37:41;;;;;;;;;;;;;;;20.37;49.66;99789.47;5054750;28;19932;-82
2022/08/16 00:40:28;;;;;;;;;;;;;;;20.30;49.93;99795.28;5053457;28;20414;-82
2022/08/16 00:43:13;;;;;;;;;;;;;;;20.29;50.13;99791.72;5070204;28;20430;-82
2022/08/16 00:46:00;;;;;;;;;;;;;;;20.26;50.14;99789.56;5053688;28;19936;-81
2022/08/16 00:48:47;;;;;;;;;;;;;;;20.27;50.23;99790.38;5053562;28;19979;-82
2022/08/16 00:51:18;;;;;;;;;;;;;;;20.22;50.21;99802.22;5054546;28;19959;-82
2022/08/16 00:53:47;;;;;;;;;;;;;;;20.13;50.41;99801.22;5069850;28;19933;-83
2022/08/16 00:56:17;;;;;;;;;;;;;;;20.06;50.64;99798.81;5053114;28;19936;-82
2022/08/16 00:59:05;;;;;;;;;;;;;;;19.99;51.08;99797.50;5039367;28;19929;-81
2022/08/16 01:01:33;;;;;;;;;;;;;;;19.91;51.24;99794.28;5054275;28;19934;-81
2022/08/16 01:04:02;;;;;;;;;;;;;;;19.84;51.49;99795.72;5053943;28;19932;-82
2022/08/16 01:06:33;;;;;;;;;;;;;;;19.77;51.58;99798.78;5054426;28;20375;-82
2022/08/16 01:09:20;;;;;;;;;;;;;;;19.69;51.96;99802.94;5066782;28;20410;-82
2022/08/16 01:12:00;;;;;;;;;;;;;;;19.66;51.90;99805.41;5053078;28;19959;-82
2022/08/16 01:14:30;;;;;;;;;;;;;;;19.61;52.14;99808.19;5054164;28;20291;-81
2022/08/16 01:16:57;;;;;;;;;;;;;;;19.54;52.27;99813.97;5053008;28;19932;-81
2022/08/16 01:19:34;;;;;;;;;;;;;;;19.54;52.36;99813.97;5020220;28;19935;-81
2022/08/16 01:22:06;;;;;;;;;;;;;;;19.45;52.67;99818.44;5052776;28;19932;-82
2022/08/16 01:24:57;;;;;;;;;;;;;;;19.37;53.02;99821.75;5053805;28;20348;-82
2022/08/16 01:27:29;;;;;;;;;;;;;;;19.34;53.01;99819.56;5069411;28;20023;-83
2022/08/16 01:30:09;;;;;;;;;;;;;;;19.35;52.97;99813.84;5036667;28;20442;-82
2022/08/16 01:32:48;;;;;;;;;;;;;;;19.30;52.91;99813.84;5069437;28;19935;-83
2022/08/16 01:35:35;;;;;;;;;;;;;;;19.18;53.26;99797.78;5052043;28;19928;-82
2022/08/16 01:38:16;;;;;;;;;;;;;;;19.14;53.39;99815.03;5036401;28;19928;-82
2022/08/16 01:40:46;;;;;;;;;;;;;;;19.09;53.79;99813.16;5069229;28;19935;-82
2022/08/16 01:43:13;;;;;;;;;;;;;;;19.08;53.80;99816.97;5068770;28;20335;-82
2022/08/16 01:45:40;;;;;;;;;;;;;;;19.04;54.11;99814.00;5053394;28;19928;-81
2022/08/16 01:48:12;;;;;;;;;;;;;;;18.98;54.04;99826.03;5051892;28;19932;-82
2022/08/16 01:50:48;;;;;;;;;;;;;;;18.88;54.51;99814.34;5052308;28;19929;-82
2022/08/16 01:53:36;;;;;;;;;;;;;;;18.83;54.81;99818.72;5052261;28;20349;-81
2022/08/16 01:56:16;;;;;;;;;;;;;;;18.77;54.93;99824.50;5052087;28;19956;-82
2022/08/16 01:58:53;;;;;;;;;;;;;;;18.74;55.13;99816.81;5052327;28;19929;-81
2022/08/16 02:01:23;;;;;;;;;;;;;;;18.70;55.18;99818.47;5051533;28;20477;-83
2022/08/16 02:03:51;;;;;;;;;;;;;;;18.69;55.32;99819.56;5052506;28;19933;-82
2022/08/16 02:06:24;;;;;;;;;;;;;;;18.68;55.12;99817.94;5053430;28;20006;-82
2022/08/16 02:09:04;;;;;;;;;;;;;;;18.61;55.25;99819.06;5051857;28;19974;-82
2022/08/16 02:11:36;;;;;;;;;;;;;;;18.56;55.44;99824.53;5052182;28;19960;-82
2022/08/16 02:14:21;;;;;;;;;;;;;;;18.51;55.62;99824.53;5051631;28;20029;-81
2022/08/16 02:16:54;;;;;;;;;;;;;;;18.47;55.72;99825.38;5068517;28;19929;-82
2022/08/16 02:19:22;;;;;;;;;;;;;;;18.42;56.04;99829.75;5035090;28;19983;-81
2022/08/16 02:21:50;;;;;;;;;;;;;;;18.43;56.20;99822.34;5052863;28;19928;-81
2022/08/16 02:24:35;;;;;;;;;;;;;;;18.40;56.01;99826.47;5051703;28;19939;-81
2022/08/16 02:27:07;;;;;;;;;;;;;;;18.39;56.29;99824.03;5052587;28;19928;-82
2022/08/16 02:29:34;;;;;;;;;;;;;;;18.40;56.47;99822.91;5051439;28;20032;-83
2022/08/16 02:32:01;;;;;;;;;;;;;;;18.41;56.47;99828.13;5052473;28;19929;-80
2022/08/16 02:34:49;;;;;;;;;;;;;;;18.42;56.27;99826.19;5052567;28;20276;-82
2022/08/16 02:37:22;;;;;;;;;;;;;;;18.45;56.40;99822.91;5051308;28;19935;-82
2022/08/16 02:40:10;;;;;;;;;;;;;;;18.55;56.16;99819.31;5051108;28;19929;-82
2022/08/16 02:42:37;;;;;;;;;;;;;;;18.56;55.93;99826.41;5051005;28;19928;-82
2022/08/16 02:45:04;;;;;;;;;;;;;;;18.57;55.89;99823.44;5051013;28;19929;-82
2022/08/16 02:47:36;;;;;;;;;;;;;;;18.56;55.75;99826.41;5050883;28;19932;-81
2022/08/16 02:50:23;;;;;;;;;;;;;;;18.57;55.95;99830.81;5068360;28;20302;-82
2022/08/16 02:53:11;;;;;;;;;;;;;;;18.56;56.17;99830.00;5052214;28;20395;-82
2022/08/16 02:55:37;;;;;;;;;;;;;;;18.58;56.25;99833.28;5067884;28;19929;-81
2022/08/16 02:58:07;;;;;;;;;;;;;;;18.60;56.36;99831.06;5050970;28;20405;-82
2022/08/16 03:00:34;;;;;;;;;;;;;;;18.60;56.34;99836.53;5034583;28;20380;-82
2022/08/16 03:03:03;;;;;;;;;;;;;;;18.62;56.47;99842.53;5050748;28;19968;-82
2022/08/16 03:05:36;;;;;;;;;;;;;;;18.67;56.58;99840.91;5050771;28;19968;-82
2022/08/16 03:08:04;;;;;;;;;;;;;;;18.68;56.29;99842.53;5050563;28;19964;-82
2022/08/16 03:10:53;;;;;;;;;;;;;;;18.70;56.24;99843.06;5050846;28;19959;-81
2022/08/16 03:13:25;;;;;;;;;;;;;;;18.72;56.18;99840.88;5051149;28;19929;-82
2022/08/16 03:15:52;;;;;;;;;;;;;;;18.73;56.20;99839.78;5034254;28;19929;-82
2022/08/16 03:18:19;;;;;;;;;;;;;;;18.76;56.39;99847.44;5050648;28;19976;-82
2022/08/16 03:21:07;;;;;;;;;;;;;;;18.79;56.29;99845.00;5029599;28;19929;-82
2022/08/16 03:23:40;;;;;;;;;;;;;;;18.83;56.23;99845.25;5049978;28;19929;-81
2022/08/16 03:26:09;;;;;;;;;;;;;;;18.83;56.51;99842.50;5050228;28;19939;-82
2022/08/16 03:28:36;;;;;;;;;;;;;;;18.82;56.51;99840.88;5051735;28;19932;-82
2022/08/16 03:31:05;;;;;;;;;;;;;;;18.86;56.27;99844.69;5035897;28;20023;-82
2022/08/16 03:33:34;;;;;;;;;;;;;;;18.92;56.40;99849.06;5047129;28;19994;-83
2022/08/16 03:36:01;;;;;;;;;;;;;;;18.98;56.12;99845.19;5030246;28;19983;-82
2022/08/16 03:38:53;;;;;;;;;;;;;;;19.07;55.77;99848.19;5051434;28;19939;-82
2022/08/16 03:41:22;;;;;;;;;;;;;;;19.14;55.58;99856.91;5051970;28;19929;-84
2022/08/16 03:43:57;;;;;;;;;;;;;;;19.23;55.52;99849.72;5046115;28;19929;-83
2022/08/16 03:46:27;;;;;;;;;;;;;;;19.34;55.01;99849.69;5048081;28;19929;-82
2022/08/16 03:49:16;;;;;;;;;;;;;;;19.46;54.65;99848.22;5061492;28;20024;-81
2022/08/16 03:51:46;;;;;;;;;;;;;;;19.54;54.51;99852.28;5039776;28;19932;-82
2022/08/16 03:54:26;;;;;;;;;;;;;;;19.61;54.25;99846.50;5045565;28;19928;-81
2022/08/16 03:56:55;;;;;;;;;;;;;;;19.63;54.18;99853.34;5066191;28;19998;-83
2022/08/16 03:59:27;;;;;;;;;;;;;;;19.76;54.04;99851.91;5064327;28;19929;-86
2022/08/16 04:01:58;;;;;;;;;;;;;;;19.82;53.54;99858.16;5028549;28;20399;-84
2022/08/16 04:04:28;;;;;;;;;;;;;;;19.92;53.24;99849.88;5029936;28;20016;-83
2022/08/16 04:07:03;;;;;;;;;;;;;;;20.01;52.93;99842.69;5026468;28;20069;-84
2022/08/16 04:09:39;;;;;;;;;;;;;;;20.09;52.68;99849.47;4679640;28;10001456;-86
2022/08/16 04:12:08;;;;;;;;;;;;;;;20.21;52.51;99846.38;5044792;28;19935;-81
2022/08/16 04:14:55;;;;;;;;;;;;;;;20.30;52.59;99844.63;5052424;28;19935;-82
2022/08/16 04:17:24;;;;;;;;;;;;;;;20.39;52.13;99842.09;5021101;28;19975;-82
2022/08/16 04:19:53;;;;;;;;;;;;;;;20.49;51.86;99847.47;5045493;28;19928;-82
2022/08/16 04:22:26;;;;;;;;;;;;;;;20.57;51.59;99849.59;5036556;28;19936;-83
2022/08/16 04:24:58;;;;;;;;;;;;;;;20.62;51.44;99857.78;5065522;28;19960;-83
2022/08/16 04:27:32;;;;;;;;;;;;;;;20.61;51.52;99845.19;5066208;28;19929;-83
2022/08/16 04:30:05;;;;;;;;;;;;;;;20.65;51.54;99850.88;5066274;28;20395;-82
2022/08/16 04:32:43;;;;;;;;;;;;;;;20.69;51.28;99850.03;5051760;28;19929;-82
2022/08/16 04:35:18;;;;;;;;;;;;;;;20.83;51.07;99852.06;5050401;28;19929;-83
2022/08/16 04:37:49;;;;;;;;;;;;;;;20.86;50.72;99845.97;5066649;28;20189;-83
2022/08/16 04:40:26;;;;;;;;;;;;;;;21.01;50.59;99856.78;5066733;28;20027;-82
2022/08/16 04:42:55;;;;;;;;;;;;;;;21.14;50.16;99853.34;5066457;28;19959;-83
2022/08/16 04:45:25;;;;;;;;;;;;;;;21.24;49.74;99859.78;5049105;28;20306;-83
2022/08/16 04:48:07;;;;;;;;;;;;;;;21.31;49.63;99852.00;5065833;28;20015;-84
2022/08/16 04:50:44;;;;;;;;;;;;;;;21.42;49.51;99859.00;5066347;28;20031;-83
2022/08/16 04:53:15;;;;;;;;;;;;;;;21.49;49.41;99853.97;5033422;28;19929;-83
2022/08/16 04:55:48;;;;;;;;;;;;;;;21.53;49.51;99857.78;5066196;28;19929;-84
2022/08/16 04:58:20;;;;;;;;;;;;;;;21.56;49.13;99857.16;5049674;28;19940;-84
2022/08/16 05:01:07;;;;;;;;;;;;;;;21.64;49.05;99856.50;5050239;28;19982;-83
2022/08/16 05:03:37;;;;;;;;;;;;;;;21.72;48.75;99862.44;5032995;28;19983;-83
2022/08/16 05:06:08;;;;;;;;;;;;;;;21.77;48.24;99860.44;5066031;28;19928;-82
2022/08/16 05:08:36;;;;;;;;;;;;;;;21.82;48.43;99856.78;5065886;28;19974;-82
2022/08/16 05:11:21;;;;;;;;;;;;;;;21.81;48.24;99855.97;5054187;28;20380;-82
2022/08/16 05:13:48;;;;;;;;;;;;;;;21.84;48.33;99857.31;5054366;28;19974;-82
2022/08/16 05:16:22;;;;;;;;;;;;;;;21.83;48.34;99847.44;5052192;28;19968;-83
2022/08/16 05:19:00;;;;;;;;;;;;;;;21.95;48.14;99853.31;5051916;28;19974;-84
2022/08/16 05:21:32;;;;;;;;;;;;;;;22.03;47.87;99846.31;5049880;28;19929;-85
2022/08/16 05:24:07;;;;;;;;;;;;;;;22.14;47.41;99857.94;5060840;28;19982;-84
2022/08/16 05:26:37;;;;;;;;;;;;;;;22.27;47.28;99854.44;5065017;28;19971;-85
2022/08/16 05:29:10;;;;;;;;;;;;;;;22.37;47.25;99851.50;5039743;28;19933;-85
2022/08/16 05:31:56;;;;;;;;;;;;;;;22.52;47.23;99847.66;5048356;28;20035;-82
2022/08/16 05:34:25;;;;;;;;;;;;;;;22.66;46.98;99844.91;5049551;28;20376;-84
2022/08/16 05:36:56;;;;;;;;;;;;;;;22.77;46.52;99851.88;5055103;28;20692;-84
2022/08/16 05:39:30;;;;;;;;;;;;;;;22.83;46.52;99852.56;5049276;28;19937;-85
2022/08/16 05:42:03;;;;;;;;;;;;;;;22.84;46.26;99849.53;5046948;28;19928;-84
2022/08/16 05:44:32;;;;;;;;;;;;;;;22.86;46.22;99854.72;5048280;28;19939;-86
2022/08/16 05:47:00;;;;;;;;;;;;;;;22.90;46.17;99848.28;5046538;28;20482;-84
2022/08/16 05:49:29;;;;;;;;;;;;;;;23.09;46.15;99855.66;5047736;28;20387;-83
2022/08/16 05:52:07;;;;;;;;;;;;;;;23.19;45.87;99846.38;5024716;28;20299;-85
2022/08/16 05:54:40;;;;;;;;;;;;;;;23.30;45.97;99851.34;5045425;28;19936;-81
2022/08/16 05:57:16;;;;;;;;;;;;;;;23.34;45.88;99851.53;5062768;28;19929;-82
2022/08/16 05:59:44;;;;;;;;;;;;;;;23.33;45.92;99855.44;5063978;28;19929;-82
2022/08/16 06:02:38;;;;;;;;;;;;;;;23.45;45.57;99847.44;5036621;28;20386;-81
2022/08/16 06:05:21;;;;;;;;;;;;;;;23.43;45.48;99851.63;5060503;28;20011;-82
2022/08/16 06:07:50;;;;;;;;;;;;;;;23.56;45.55;99861.81;5038488;28;19987;-82
2022/08/16 06:10:31;;;;;;;;;;;;;;;23.57;45.66;99856.00;5052288;28;20039;-82
2022/08/16 06:13:03;;;;;;;;;;;;;;;23.48;45.47;99859.78;5060271;28;19975;-84
2022/08/16 06:15:30;;;;;;;;;;;;;;;23.52;45.63;99860.78;5061952;28;20015;-83
2022/08/16 06:17:58;;;;;;;;;;;;;;;23.60;45.50;99865.59;5050951;28;19929;-84
2022/08/16 06:20:29;;;;;;;;;;;;;;;23.72;45.03;99863.09;5053713;28;20414;-86
2022/08/16 06:23:31;;;;;;;;;;;;;;;23.95;44.89;99854.84;4967959;28;20455;-83
2022/08/16 06:26:04;;;;;;;;;;;;;;;24.13;44.50;99853.88;4967290;28;19930;-84
2022/08/16 06:28:35;;;;;;;;;;;;;;;24.24;44.46;99851.66;4936395;28;20387;-82
2022/08/16 06:31:10;;;;;;;;;;;;;;;24.32;44.18;99861.13;4968626;28;19930;-85
2022/08/16 06:33:42;;;;;;;;;;;;;;;24.38;43.95;99849.63;4933883;28;20460;-84
2022/08/16 06:36:14;;;;;;;;;;;;;;;24.47;43.44;99857.97;4949403;28;19929;-84
2022/08/16 06:38:50;;;;;;;;;;;;;;;24.54;43.28;99854.78;4935946;28;19969;-83
2022/08/16 06:41:47;;;;;;;;;;;;;;;24.50;43.43;99853.78;4949595;28;19930;-83
2022/08/16 06:44:38;;;;;;;;;;;;;;;24.59;42.77;99852.69;4951453;28;20061;-84
2022/08/16 06:47:23;;;;;;;;;;;;;;;24.73;42.74;99849.00;4951787;28;19930;-83
2022/08/16 06:50:10;;;;;;;;;;;;;;;24.83;42.81;99857.00;4964689;28;19949;-84
2022/08/16 06:52:57;;;;;;;;;;;;;;;24.95;42.56;99859.97;4965102;28;19930;-83
2022/08/16 06:55:41;;;;;;;;;;;;;;;25.12;42.50;99855.63;4935206;28;20452;-84
2022/08/16 06:58:12;;;;;;;;;;;;;;;25.30;42.51;99854.56;4966401;28;20044;-83
2022/08/16 07:01:05;;;;;;;;;;;;;;;25.41;41.91;99846.78;5018821;28;19929;-82
2022/08/16 07:03:44;;;;;;;;;;;;;;;25.52;41.48;99851.69;5062132;28;19932;-82
2022/08/16 07:06:30;;;;;;;;;;;;;;;25.49;40.96;99849.53;5062298;28;20395;-81
2022/08/16 07:09:03;;;;;;;;;;;;;;;25.52;40.19;99846.16;5052444;28;19929;-83
2022/08/16 07:11:38;;;;;;;;;;;;;;;25.47;39.49;99851.00;5060505;28;20147;-84
2022/08/16 07:14:23;;;;;;;;;;;;;;;25.35;39.70;99848.09;5032431;28;19928;-84
2022/08/16 07:16:56;;;;;;;;;;;;;;;25.38;39.32;99844.69;5045660;28;19936;-84
2022/08/16 07:19:27;;;;;;;;;;;;;;;25.47;39.58;99842.72;5045179;28;19976;-84
2022/08/16 07:22:15;;;;;;;;;;;;;;;25.59;39.16;99853.13;5048027;28;20401;-85
2022/08/16 07:25:04;;;;;;;;;;;;;;;25.55;39.33;99854.91;5066730;28;19964;-83
2022/08/16 07:27:31;;;;;;;;;;;;;;;25.60;39.27;99841.78;5050948;28;20474;-84
2022/08/16 07:30:05;;;;;;;;;;;;;;;25.63;39.02;99857.69;5065858;28;19957;-85
2022/08/16 07:32:54;;;;;;;;;;;;;;;25.63;38.99;99848.59;5046808;28;19928;-83
2022/08/16 07:35:22;;;;;;;;;;;;;;;25.86;38.76;99849.28;5061876;28;20019;-85
2022/08/16 07:37:49;;;;;;;;;;;;;;;26.19;38.28;99849.56;5063083;28;20033;-83
2022/08/16 07:40:36;;;;;;;;;;;;;;;26.22;38.13;99854.44;5046842;28;19936;-84
2022/08/16 07:43:23;;;;;;;;;;;;;;;26.22;37.81;99857.19;5047879;28;19929;-84
2022/08/16 07:45:58;;;;;;;;;;;;;;;26.14;37.90;99850.53;5063090;28;19928;-85
2022/08/16 07:48:30;;;;;;;;;;;;;;;26.12;38.20;99854.78;5043159;28;19935;-85
2022/08/16 07:50:57;;;;;;;;;;;;;;;26.19;38.12;99870.88;5046639;28;19964;-85
2022/08/16 07:53:31;;;;;;;;;;;;;;;26.52;38.60;99844.28;5049375;28;19933;-86
2022/08/16 07:56:01;;;;;;;;;;;;;;;26.67;37.61;99856.78;5050007;28;19936;-86
2022/08/16 07:58:36;;;;;;;;;;;;;;;26.56;37.88;99875.72;5050469;28;20066;-86
2022/08/16 08:01:09;;;;;;;;;;;;;;;26.61;37.77;99854.50;5066383;28;20043;-85
2022/08/16 08:03:47;;;;;;;;;;;;;;;26.76;37.24;99853.97;5065608;28;19929;-85
2022/08/16 08:06:27;;;;;;;;;;;;;;;26.63;37.17;99852.22;5066583;28;19933;-87
2022/08/16 08:09:00;;;;;;;;;;;;;;;26.66;36.99;99846.81;5067122;28;20300;-85
2022/08/16 08:11:28;;;;;;;;;;;;;;;26.92;36.88;99857.00;5060033;28;19933;-86
2022/08/16 08:14:00;;;;;;;;;;;;;;;27.21;36.70;99847.91;5033958;28;19940;-88
2022/08/16 08:16:36;;;;;;;;;;;;;;;27.64;35.56;99855.09;5066063;28;19935;-85
2022/08/16 08:19:24;;;;;;;;;;;;;;;27.76;34.86;99851.59;5049698;28;19928;-85
2022/08/16 08:21:53;;;;;;;;;;;;;;;27.57;35.19;99847.31;5047003;28;20349;-85
2022/08/16 08:24:54;;;;;;;;;;;;;;;27.63;35.28;99837.66;5050150;28;19929;-85
2022/08/16 08:27:31;;;;;;;;;;;;;;;27.75;34.73;99839.69;5049983;28;20399;-84
2022/08/16 08:30:02;;;;;;;;;;;;;;;27.84;34.97;99836.84;5049848;28;19933;-83
2022/08/16 08:32:52;;;;;;;;;;;;;;;27.78;35.05;99843.75;5047420;28;19968;-83
2022/08/16 08:35:29;;;;;;;;;;;;;;;28.00;34.93;99828.69;5047925;28;19929;-83
2022/08/16 08:37:57;;;;;;;;;;;;;;;28.31;34.67;99828.22;5048922;28;19976;-82
2022/08/16 08:40:27;;;;;;;;;;;;;;;28.34;33.19;99843.38;5048828;28;20406;-84
2022/08/16 08:42:59;;;;;;;;;;;;;;;28.29;33.91;99836.88;5048413;28;20434;-82
2022/08/16 08:45:40;;;;;;;;;;;;;;;28.67;33.46;99840.56;5051684;28;19928;-81
2022/08/16 08:48:20;;;;;;;;;;;;;;;28.81;32.85;99834.66;5067856;28;19951;-82
2022/08/16 08:51:06;;;;;;;;;;;;;;;28.87;32.95;99834.09;5069340;28;19929;-84
2022/08/16 08:53:42;;;;;;;;;;;;;;;29.39;32.36;99827.81;5067809;28;19933;-82
2022/08/16 08:56:32;;;;;;;;;;;;;;;29.36;32.52;99825.72;5052118;28;19935;-84
2022/08/16 08:59:22;;;;;;;;;;;;;;;29.55;31.42;99836.25;5048126;28;19968;-84
2022/08/16 09:01:56;;;;;;;;;;;;;;;29.55;31.12;99830.69;5068057;28;19937;-85
2022/08/16 09:04:30;;;;;;;;;;;;;;;29.62;31.22;99830.06;5047889;28;19959;-85
2022/08/16 09:07:00;;;;;;;;;;;;;;;29.98;30.86;99825.53;5049470;28;19929;-85
2022/08/16 09:09:31;;;;;;;;;;;;;;;30.44;30.07;99831.59;5033945;28;19976;-86
2022/08/16 09:12:03;;;;;;;;;;;;;;;30.27;30.44;99824.38;5034029;28;19933;-85
2022/08/16 09:14:47;;;;;;;;;;;;;;;30.72;30.00;99825.13;5033682;28;20327;-86
2022/08/16 09:17:21;;;;;;;;;;;;;;;30.81;29.93;99798.69;5032827;28;19933;-85
2022/08/16 09:20:12;;;;;;;;;;;;;;;31.17;29.80;99834.97;5032770;28;20367;-85
2022/08/16 09:22:49;;;;;;;;;;;;;;;31.62;28.98;99816.88;5015919;28;19929;-84
2022/08/16 09:25:21;;;;;;;;;;;;;;;32.10;28.33;99823.03;5032920;28;20308;-84
2022/08/16 09:27:52;;;;;;;;;;;;;;;32.25;28.26;99830.50;5049605;28;20408;-84
2022/08/16 09:30:33;;;;;;;;;;;;;;;32.45;27.90;99819.28;5016699;28;19929;-85
2022/08/16 09:33:17;;;;;;;;;;;;;;;32.01;28.49;99822.47;5033688;28;20300;-84
2022/08/16 09:35:46;;;;;;;;;;;;;;;32.43;27.81;99833.59;5033729;28;19936;-85
2022/08/16 09:38:19;;;;;;;;;;;;;;;32.90;27.53;99826.03;5032480;28;19928;-84
2022/08/16 09:40:59;;;;;;;;;;;;;;;33.14;27.15;99822.03;5034308;28;19971;-85
2022/08/16 09:43:26;;;;;;;;;;;;;;;33.31;26.90;99824.28;5048995;28;19963;-85
2022/08/16 09:46:13;;;;;;;;;;;;;;;33.50;26.91;99820.53;5033465;28;19933;-85
2022/08/16 09:49:00;;;;;;;;;;;;;;;33.46;26.91;99816.88;5033522;28;19929;-86
2022/08/16 09:51:30;;;;;;;;;;;;;;;33.09;26.84;99811.97;5050127;28;19929;-86
2022/08/16 09:54:03;;;;;;;;;;;;;;;33.09;27.05;99819.56;5044852;28;20043;-83
2022/08/16 09:56:31;;;;;;;;;;;;;;;33.24;26.85;99810.97;5031416;28;19935;-85
2022/08/16 09:58:59;;;;;;;;;;;;;;;33.64;26.50;99808.75;5050221;28;20051;-85
2022/08/16 10:01:35;;;;;;;;;;;;;;;33.56;26.48;99812.66;5032787;28;19933;-84
2022/08/16 10:04:02;;;;;;;;;;;;;;;33.87;25.90;99811.41;5031498;28;19929;-84
2022/08/16 10:06:51;;;;;;;;;;;;;;;33.53;25.38;99800.19;5049509;28;19986;-85
2022/08/16 10:09:19;;;;;;;;;;;;;;;33.84;25.16;99809.38;5047220;28;19928;-86
2022/08/16 10:14:44;;;;;;;;;;;;;;;33.81;25.28;99805.34;5048961;28;19973;-87
2022/08/16 10:17:12;;;;;;;;;;;;;;;33.38;24.76;99798.41;5048893;28;19960;-85
2022/08/16 10:19:40;;;;;;;;;;;;;;;32.92;25.67;99812.50;5048166;28;19936;-85
2022/08/16 10:22:09;;;;;;;;;;;;;;;33.44;25.64;99808.84;5046022;28;20384;-86
2022/08/16 10:24:39;;;;;;;;;;;;;;;33.66;24.97;99821.16;5048052;28;19928;-85
2022/08/16 10:27:24;;;;;;;;;;;;;;;33.83;24.88;99805.78;5047714;28;19928;-84
2022/08/16 10:29:55;;;;;;;;;;;;;;;33.99;24.83;99804.75;5046490;28;20264;-83
2022/08/16 10:32:29;;;;;;;;;;;;;;;34.29;24.49;99810.28;5047681;28;19936;-86
2022/08/16 10:34:58;;;;;;;;;;;;;;;34.14;24.67;99814.16;5047762;28;19975;-84
2022/08/16 10:37:25;;;;;;;;;;;;;;;33.94;24.88;99805.91;5047688;28;20392;-87
2022/08/16 10:40:07;;;;;;;;;;;;;;;34.36;24.84;99798.31;5007945;28;19929;-86
2022/08/16 10:42:54;;;;;;;;;;;;;;;34.83;24.21;99796.75;5048838;28;20302;-85
2022/08/16 10:45:21;;;;;;;;;;;;;;;34.81;24.07;99799.94;5036488;28;20330;-85
2022/08/16 10:47:49;;;;;;;;;;;;;;;34.25;24.62;99803.84;5062135;28;19933;-86
2022/08/16 10:50:28;;;;;;;;;;;;;;;34.30;24.67;99803.47;5046651;28;20446;-88
2022/08/16 10:52:57;;;;;;;;;;;;;;;34.85;24.13;99800.78;4698915;28;10000983;-89
2022/08/16 10:55:25;;;;;;;;;;;;;;;34.33;24.62;99794.31;5047220;28;19937;-87
2022/08/16 10:58:12;;;;;;;;;;;;;;;34.91;24.41;99787.97;5048916;28;19929;-86
2022/08/16 11:00:43;;;;;;;;;;;;;;;34.72;24.40;99774.25;5040999;28;19933;-88
2022/08/16 11:03:12;;;;;;;;;;;;;;;34.09;25.35;99781.69;5047066;28;19929;-87
2022/08/16 11:05:59;;;;;;;;;;;;;;;35.26;23.86;99797.84;5027749;28;19929;-84
2022/08/16 11:08:33;;;;;;;;;;;;;;;35.79;23.01;99780.44;5045037;28;19928;-84
2022/08/16 11:11:05;;;;;;;;;;;;;;;36.39;22.79;99789.41;5048399;28;20027;-86
2022/08/16 11:13:45;;;;;;;;;;;;;;;36.67;22.53;99783.81;5049355;28;19929;-84
2022/08/16 11:16:32;;;;;;;;;;;;;;;36.62;22.54;99781.41;5039177;28;19980;-85
2022/08/16 11:19:19;;;;;;;;;;;;;;;35.15;24.11;99774.56;5049646;28;20299;-84
2022/08/16 11:21:49;;;;;;;;;;;;;;;35.27;23.69;99777.03;5047046;28;19935;-85
2022/08/16 11:24:40;;;;;;;;;;;;;;;34.82;24.13;99779.13;5050189;28;19945;-85
2022/08/16 11:27:18;;;;;;;;;;;;;;;35.69;23.35;99769.19;5049393;28;19928;-84
2022/08/16 11:29:49;;;;;;;;;;;;;;;36.71;22.76;99777.38;5049354;28;19935;-85
2022/08/16 11:32:18;;;;;;;;;;;;;;;37.19;21.96;99771.28;5047113;28;20006;-84
2022/08/16 11:34:48;;;;;;;;;;;;;;;37.34;21.82;99761.56;5051119;28;19929;-84
2022/08/16 11:37:35;;;;;;;;;;;;;;;37.68;21.73;99758.25;5030694;28;19929;-85
2022/08/16 11:40:24;;;;;;;;;;;;;;;38.46;20.96;99758.94;5035568;28;20361;-84
2022/08/16 11:43:00;;;;;;;;;;;;;;;38.38;20.79;99761.78;5031615;28;20406;-84
2022/08/16 11:45:30;;;;;;;;;;;;;;;35.95;22.81;99765.25;5029466;28;20002;-85
2022/08/16 11:48:03;;;;;;;;;;;;;;;35.14;23.67;99754.09;5048421;28;19928;-85
2022/08/16 11:50:33;;;;;;;;;;;;;;;33.91;24.97;99761.88;5032208;28;19939;-85
2022/08/16 11:53:07;;;;;;;;;;;;;;;32.97;26.10;99756.28;5042705;28;20426;-86
2022/08/16 11:55:35;;;;;;;;;;;;;;;33.53;25.52;99749.03;5032743;28;19933;-86
2022/08/16 11:58:06;;;;;;;;;;;;;;;33.64;25.56;99752.78;5048751;28;19932;-84
2022/08/16 12:00:33;;;;;;;;;;;;;;;32.70;26.11;99753.47;5045788;28;20396;-86
2022/08/16 12:03:17;;;;;;;;;;;;;;;31.98;27.12;99753.41;5045990;28;19954;-87
2022/08/16 12:05:45;;;;;;;;;;;;;;;32.60;26.66;99754.09;5047405;28;20486;-85
2022/08/16 12:08:17;;;;;;;;;;;;;;;34.31;24.82;99755.50;5032771;28;19964;-85
2022/08/16 12:10:51;;;;;;;;;;;;;;;35.52;23.29;99753.84;5050418;28;20031;-84
2022/08/16 12:13:19;;;;;;;;;;;;;;;36.27;22.47;99747.66;5066117;28;20315;-86
2022/08/16 12:15:46;;;;;;;;;;;;;;;36.57;21.75;99744.47;5049365;28;19977;-85
2022/08/16 12:18:16;;;;;;;;;;;;;;;37.12;21.37;99743.94;5050760;28;19982;-85
2022/08/16 12:20:47;;;;;;;;;;;;;;;37.29;20.88;99731.03;5053792;28;19972;-88
2022/08/16 12:23:14;;;;;;;;;;;;;;;37.03;20.81;99730.31;5036610;28;19984;-86
2022/08/16 12:25:43;;;;;;;;;;;;;;;37.26;20.98;99732.66;5052076;28;19936;-83
2022/08/16 12:28:10;;;;;;;;;;;;;;;37.91;20.40;99724.69;5069620;28;19975;-86
2022/08/16 12:30:38;;;;;;;;;;;;;;;37.77;20.48;99719.16;5026859;28;19929;-87
2022/08/16 12:33:10;;;;;;;;;;;;;;;38.45;20.08;99726.34;5053393;28;19948;-84
2022/08/16 12:35:37;;;;;;;;;;;;;;;38.65;19.64;99718.88;5052252;28;19956;-86
2022/08/16 12:38:06;;;;;;;;;;;;;;;38.63;19.94;99718.50;5042050;28;19935;-85
2022/08/16 12:40:53;;;;;;;;;;;;;;;38.81;20.06;99716.28;5035711;28;19933;-84
2022/08/16 12:43:24;;;;;;;;;;;;;;;39.48;19.31;99715.13;5054173;28;19955;-85
2022/08/16 12:45:54;;;;;;;;;;;;;;;39.63;19.33;99717.34;5052880;28;19982;-83
2022/08/16 12:51:10;;;;;;;;;;;;;;;39.51;19.36;99706.63;5043839;28;20028;-86
2022/08/16 12:53:46;;;;;;;;;;;;;;;40.16;19.41;99714.94;5048234;28;20299;-85
2022/08/16 12:56:13;;;;;;;;;;;;;;;40.54;19.19;99713.88;5051273;28;19940;-84
2022/08/16 12:58:44;;;;;;;;;;;;;;;40.54;18.61;99714.72;5054823;28;20591;-84
2022/08/16 13:01:18;;;;;;;;;;;;;;;39.23;19.73;99713.41;5052724;28;20027;-83
2022/08/16 13:03:49;;;;;;;;;;;;;;;39.38;19.51;99708.41;5053757;28;20493;-85
2022/08/16 13:06:36;;;;;;;;;;;;;;;39.80;19.38;99715.47;5048657;28;19982;-83
2022/08/16 13:09:17;;;;;;;;;;;;;;;40.55;18.91;99707.03;5044189;28;19932;-84
2022/08/16 13:11:47;;;;;;;;;;;;;;;41.01;18.21;99696.84;5050098;28;19928;-83
2022/08/16 13:14:23;;;;;;;;;;;;;;;41.18;18.36;99701.38;5046959;28;20296;-82
2022/08/16 13:16:59;;;;;;;;;;;;;;;41.55;17.86;99702.19;5032318;28;20295;-82
2022/08/16 13:19:27;;;;;;;;;;;;;;;41.22;17.56;99693.59;5042960;28;19944;-81
2022/08/16 13:22:14;;;;;;;;;;;;;;;40.88;18.34;99697.50;5052621;28;19939;-80
2022/08/16 13:24:45;;;;;;;;;;;;;;;40.78;18.51;99697.72;5052954;28;20453;-81
2022/08/16 13:27:13;;;;;;;;;;;;;;;41.05;18.05;99689.09;4701731;28;9999984;-80
2022/08/16 13:29:40;;;;;;;;;;;;;;;40.98;18.35;99689.25;5047546;28;19967;-83
2022/08/16 13:32:10;;;;;;;;;;;;;;;41.12;17.54;99681.28;5039055;28;20041;-83